sensor_id;sensor_type;location;lat;lon;timestamp;pressure;altitude;pressure_sealevel;temperature;humidity
77702;BME280;66868;42.708;23.404;2023-11-19T00:00:25;95125.00;;;3.99;79.79
77702;BME280;66868;42.708;23.404;2023-11-19T00:02:51;95136.78;;;3.97;79.83
77702;BME280;66868;42.708;23.404;2023-11-19T00:05:16;95120.50;;;3.84;79.68
77702;BME280;66868;42.708;23.404;2023-11-19T00:07:42;95132.78;;;3.92;80.40
77702;BME280;66868;42.708;23.404;2023-11-19T00:10:11;95130.19;;;3.93;79.73
77702;BME280;66868;42.708;23.404;2023-11-19T00:12:38;95136.97;;;3.91;80.23
77702;BME280;66868;42.708;23.404;2023-11-19T00:15:05;95141.97;;;3.91;80.03
77702;BME280;66868;42.708;23.404;2023-11-19T00:17:31;95120.19;;;3.93;80.16
77702;BME280;66868;42.708;23.404;2023-11-19T00:19:57;95124.28;;;3.96;79.67
77702;BME280;66868;42.708;23.404;2023-11-19T00:22:22;95122.75;;;3.92;79.89
77702;BME280;66868;42.708;23.404;2023-11-19T00:24:48;95131.84;;;3.94;79.37
77702;BME280;66868;42.708;23.404;2023-11-19T00:27:13;95136.94;;;3.93;79.55
77702;BME280;66868;42.708;23.404;2023-11-19T00:29:40;95123.25;;;3.77;79.34
77702;BME280;66868;42.708;23.404;2023-11-19T00:32:05;95129.69;;;3.84;79.40
77702;BME280;66868;42.708;23.404;2023-11-19T00:34:32;95127.13;;;3.85;79.63
77702;BME280;66868;42.708;23.404;2023-11-19T00:36:58;95121.28;;;3.86;80.03
77702;BME280;66868;42.708;23.404;2023-11-19T00:39:23;95111.28;;;3.85;80.03
77702;BME280;66868;42.708;23.404;2023-11-19T00:41:48;95117.22;;;3.82;79.81
77702;BME280;66868;42.708;23.404;2023-11-19T00:44:14;95123.59;;;3.92;79.65
77702;BME280;66868;42.708;23.404;2023-11-19T00:46:39;95131.91;;;3.93;79.57
77702;BME280;66868;42.708;23.404;2023-11-19T00:49:05;95132.06;;;3.88;79.90
77702;BME280;66868;42.708;23.404;2023-11-19T00:51:30;95129.06;;;3.77;79.72
77702;BME280;66868;42.708;23.404;2023-11-19T00:53:57;95146.19;;;3.89;80.01
77702;BME280;66868;42.708;23.404;2023-11-19T00:56:22;95136.41;;;3.83;79.82
77702;BME280;66868;42.708;23.404;2023-11-19T00:58:48;95143.81;;;3.86;80.07
77702;BME280;66868;42.708;23.404;2023-11-19T01:01:14;95140.31;;;3.90;79.63
77702;BME280;66868;42.708;23.404;2023-11-19T01:03:39;95147.16;;;3.85;80.13
77702;BME280;66868;42.708;23.404;2023-11-19T01:06:05;95155.53;;;3.84;80.01
77702;BME280;66868;42.708;23.404;2023-11-19T01:08:30;95144.91;;;3.78;80.77
77702;BME280;66868;42.708;23.404;2023-11-19T01:10:56;95127.06;;;3.62;80.82
77702;BME280;66868;42.708;23.404;2023-11-19T01:13:21;95152.47;;;3.76;80.87
77702;BME280;66868;42.708;23.404;2023-11-19T01:15:47;95162.47;;;3.76;80.76
77702;BME280;66868;42.708;23.404;2023-11-19T01:18:13;95160.00;;;3.75;81.00
77702;BME280;66868;42.708;23.404;2023-11-19T01:20:38;95087.69;;;3.41;80.78
77702;BME280;66868;42.708;23.404;2023-11-19T01:23:04;95112.59;;;3.70;80.48
77702;BME280;66868;42.708;23.404;2023-11-19T01:25:29;95125.91;;;3.72;80.57
77702;BME280;66868;42.708;23.404;2023-11-19T01:27:55;95145.06;;;3.73;81.10
77702;BME280;66868;42.708;23.404;2023-11-19T01:30:23;95143.38;;;3.74;80.73
77702;BME280;66868;42.708;23.404;2023-11-19T01:32:49;95150.16;;;3.70;80.22
77702;BME280;66868;42.708;23.404;2023-11-19T01:35:15;95149.28;;;3.71;80.60
77702;BME280;66868;42.708;23.404;2023-11-19T01:37:40;95161.63;;;3.77;80.43
77702;BME280;66868;42.708;23.404;2023-11-19T01:40:06;95167.53;;;3.75;80.20
77702;BME280;66868;42.708;23.404;2023-11-19T01:42:37;95162.47;;;3.76;80.42
77702;BME280;66868;42.708;23.404;2023-11-19T01:45:04;95170.03;;;3.75;79.65
77702;BME280;66868;42.708;23.404;2023-11-19T01:47:33;95165.97;;;3.71;79.80
77702;BME280;66868;42.708;23.404;2023-11-19T01:49:59;95179.31;;;3.71;80.07
77702;BME280;66868;42.708;23.404;2023-11-19T01:52:25;95148.06;;;3.56;79.76
77702;BME280;66868;42.708;23.404;2023-11-19T01:54:53;95171.91;;;3.68;79.27
77702;BME280;66868;42.708;23.404;2023-11-19T01:57:20;95186.94;;;3.68;79.19
77702;BME280;66868;42.708;23.404;2023-11-19T01:59:46;95183.63;;;3.68;78.87
77702;BME280;66868;42.708;23.404;2023-11-19T02:02:12;95157.75;;;3.67;79.12
77702;BME280;66868;42.708;23.404;2023-11-19T02:04:38;95184.31;;;3.71;79.18
77702;BME280;66868;42.708;23.404;2023-11-19T02:07:04;95177.59;;;3.73;78.95
77702;BME280;66868;42.708;23.404;2023-11-19T02:09:29;95170.97;;;3.72;78.92
77702;BME280;66868;42.708;23.404;2023-11-19T02:11:55;95171.81;;;3.71;78.41
77702;BME280;66868;42.708;23.404;2023-11-19T02:14:24;95159.28;;;3.71;78.38
77702;BME280;66868;42.708;23.404;2023-11-19T02:16:51;95167.66;;;3.70;78.95
77702;BME280;66868;42.708;23.404;2023-11-19T02:19:19;95152.66;;;3.70;78.09
77702;BME280;66868;42.708;23.404;2023-11-19T02:21:44;95150.94;;;3.72;77.92
77702;BME280;66868;42.708;23.404;2023-11-19T02:24:11;95146.88;;;3.68;78.56
77702;BME280;66868;42.708;23.404;2023-11-19T02:26:45;95133.03;;;3.58;78.16
77702;BME280;66868;42.708;23.404;2023-11-19T02:29:13;95151.31;;;3.60;78.49
77702;BME280;66868;42.708;23.404;2023-11-19T02:31:38;95146.38;;;3.57;79.11
77702;BME280;66868;42.708;23.404;2023-11-19T02:34:04;95151.75;;;3.46;78.82
77702;BME280;66868;42.708;23.404;2023-11-19T02:36:31;95108.75;;;3.34;79.03
77702;BME280;66868;42.708;23.404;2023-11-19T02:38:57;95123.59;;;3.40;78.89
77702;BME280;66868;42.708;23.404;2023-11-19T02:41:23;95118.75;;;3.34;79.23
77702;BME280;66868;42.708;23.404;2023-11-19T02:43:49;95152.81;;;3.38;79.16
77702;BME280;66868;42.708;23.404;2023-11-19T02:46:15;95145.38;;;3.36;79.48
77702;BME280;66868;42.708;23.404;2023-11-19T02:48:42;95130.44;;;3.33;79.87
77702;BME280;66868;42.708;23.404;2023-11-19T02:51:10;95137.22;;;3.30;79.50
77702;BME280;66868;42.708;23.404;2023-11-19T02:53:36;95133.97;;;3.28;79.82
77702;BME280;66868;42.708;23.404;2023-11-19T02:56:05;95139.56;;;3.36;79.82
77702;BME280;66868;42.708;23.404;2023-11-19T02:58:37;95142.91;;;3.35;79.92
77702;BME280;66868;42.708;23.404;2023-11-19T03:01:04;95148.78;;;3.34;79.67
77702;BME280;66868;42.708;23.404;2023-11-19T03:03:38;95163.03;;;3.32;79.80
77702;BME280;66868;42.708;23.404;2023-11-19T03:06:06;95138.88;;;3.31;79.97
77702;BME280;66868;42.708;23.404;2023-11-19T03:08:32;95140.78;;;3.23;80.10
77702;BME280;66868;42.708;23.404;2023-11-19T03:10:58;95151.56;;;3.25;79.89
77702;BME280;66868;42.708;23.404;2023-11-19T03:13:24;95153.88;;;3.31;79.90
77702;BME280;66868;42.708;23.404;2023-11-19T03:15:49;95144.94;;;3.24;79.89
77702;BME280;66868;42.708;23.404;2023-11-19T03:18:15;95163.91;;;3.29;79.69
77702;BME280;66868;42.708;23.404;2023-11-19T03:20:40;95159.81;;;3.28;79.86
77702;BME280;66868;42.708;23.404;2023-11-19T03:23:06;95174.94;;;3.24;80.02
77702;BME280;66868;42.708;23.404;2023-11-19T03:25:32;95172.34;;;3.27;79.84
77702;BME280;66868;42.708;23.404;2023-11-19T03:28:02;95087.72;;;2.85;79.49
77702;BME280;66868;42.708;23.404;2023-11-19T03:30:29;95159.16;;;3.22;79.86
77702;BME280;66868;42.708;23.404;2023-11-19T03:32:55;95173.06;;;3.30;79.31
77702;BME280;66868;42.708;23.404;2023-11-19T03:35:21;95105.22;;;2.85;79.64
77702;BME280;66868;42.708;23.404;2023-11-19T03:37:47;95149.31;;;3.16;79.76
77702;BME280;66868;42.708;23.404;2023-11-19T03:40:13;95168.09;;;3.29;79.87
77702;BME280;66868;42.708;23.404;2023-11-19T03:42:39;95159.16;;;3.22;79.83
77702;BME280;66868;42.708;23.404;2023-11-19T03:45:06;95177.19;;;3.33;79.54
77702;BME280;66868;42.708;23.404;2023-11-19T03:47:36;95139.41;;;3.13;79.57
77702;BME280;66868;42.708;23.404;2023-11-19T03:50:02;95169.16;;;3.22;79.62
77702;BME280;66868;42.708;23.404;2023-11-19T03:52:28;95209.06;;;3.25;79.80
77702;BME280;66868;42.708;23.404;2023-11-19T03:54:54;95185.59;;;3.29;79.32
77702;BME280;66868;42.708;23.404;2023-11-19T03:57:23;95174.97;;;3.22;79.33
77702;BME280;66868;42.708;23.404;2023-11-19T03:59:49;95187.19;;;3.33;79.86
77702;BME280;66868;42.708;23.404;2023-11-19T04:02:15;95184.72;;;3.31;79.23
77702;BME280;66868;42.708;23.404;2023-11-19T04:04:41;95187.06;;;3.37;79.31
77702;BME280;66868;42.708;23.404;2023-11-19T04:07:06;95198.09;;;3.30;79.25
77702;BME280;66868;42.708;23.404;2023-11-19T04:09:32;95206.38;;;3.32;78.94
77702;BME280;66868;42.708;23.404;2023-11-19T04:12:06;95192.94;;;3.35;79.36
77702;BME280;66868;42.708;23.404;2023-11-19T04:14:32;95225.56;;;3.32;79.04
77702;BME280;66868;42.708;23.404;2023-11-19T04:16:57;95179.25;;;3.19;79.40
77702;BME280;66868;42.708;23.404;2023-11-19T04:19:23;95208.00;;;3.33;79.45
77702;BME280;66868;42.708;23.404;2023-11-19T04:21:49;95184.69;;;3.33;79.57
77702;BME280;66868;42.708;23.404;2023-11-19T04:24:15;95182.63;;;3.18;79.50
77702;BME280;66868;42.708;23.404;2023-11-19T04:26:44;95208.91;;;3.31;79.56
77702;BME280;66868;42.708;23.404;2023-11-19T04:29:14;95190.97;;;3.17;79.59
77702;BME280;66868;42.708;23.404;2023-11-19T04:31:41;95212.63;;;3.18;80.16
77702;BME280;66868;42.708;23.404;2023-11-19T04:34:07;95138.81;;;2.77;80.00
77702;BME280;66868;42.708;23.404;2023-11-19T04:36:33;95210.13;;;3.18;80.07
77702;BME280;66868;42.708;23.404;2023-11-19T04:38:59;95195.31;;;3.10;80.31
77702;BME280;66868;42.708;23.404;2023-11-19T04:41:25;95219.56;;;3.08;80.44
77702;BME280;66868;42.708;23.404;2023-11-19T04:43:51;95227.91;;;3.08;80.17
77702;BME280;66868;42.708;23.404;2023-11-19T04:46:16;95231.38;;;3.03;80.58
77702;BME280;66868;42.708;23.404;2023-11-19T04:48:42;95214.53;;;3.09;80.78
77702;BME280;66868;42.708;23.404;2023-11-19T04:51:07;95201.47;;;3.00;80.25
77702;BME280;66868;42.708;23.404;2023-11-19T04:53:34;95230.25;;;3.13;80.36
77702;BME280;66868;42.708;23.404;2023-11-19T04:56:00;95249.47;;;3.11;80.23
77702;BME280;66868;42.708;23.404;2023-11-19T04:58:25;95231.25;;;3.07;80.31
77702;BME280;66868;42.708;23.404;2023-11-19T05:00:51;95201.66;;;2.92;80.03
77702;BME280;66868;42.708;23.404;2023-11-19T05:03:16;95237.03;;;3.09;80.05
77702;BME280;66868;42.708;23.404;2023-11-19T05:05:43;95242.16;;;3.05;80.10
77702;BME280;66868;42.708;23.404;2023-11-19T05:08:08;95237.91;;;3.08;79.97
77702;BME280;66868;42.708;23.404;2023-11-19T05:10:33;95234.69;;;3.03;80.28
77702;BME280;66868;42.708;23.404;2023-11-19T05:12:59;95262.91;;;3.08;80.40
77702;BME280;66868;42.708;23.404;2023-11-19T05:15:24;95251.25;;;3.07;80.27
77702;BME280;66868;42.708;23.404;2023-11-19T05:17:50;95257.72;;;3.15;80.29
77702;BME280;66868;42.708;23.404;2023-11-19T05:20:15;95252.78;;;3.13;79.46
77702;BME280;66868;42.708;23.404;2023-11-19T05:22:42;95254.44;;;3.13;79.71
77702;BME280;66868;42.708;23.404;2023-11-19T05:25:08;95250.44;;;3.07;79.67
77702;BME280;66868;42.708;23.404;2023-11-19T05:27:35;95251.25;;;3.07;79.79
77702;BME280;66868;42.708;23.404;2023-11-19T05:30:02;95230.47;;;3.05;79.53
77702;BME280;66868;42.708;23.404;2023-11-19T05:32:27;95246.41;;;3.01;80.00
77702;BME280;66868;42.708;23.404;2023-11-19T05:34:53;95238.97;;;3.00;80.42
77702;BME280;66868;42.708;23.404;2023-11-19T05:37:18;95226.63;;;2.94;80.13
77702;BME280;66868;42.708;23.404;2023-11-19T05:39:45;95270.56;;;3.02;80.15
77702;BME280;66868;42.708;23.404;2023-11-19T05:42:10;95258.97;;;3.00;80.27
77702;BME280;66868;42.708;23.404;2023-11-19T05:44:35;95187.63;;;2.57;80.05
77702;BME280;66868;42.708;23.404;2023-11-19T05:47:02;95238.41;;;2.90;79.69
77702;BME280;66868;42.708;23.404;2023-11-19T05:49:27;95249.94;;;2.94;80.20
77702;BME280;66868;42.708;23.404;2023-11-19T05:51:53;95266.53;;;2.97;80.24
77702;BME280;66868;42.708;23.404;2023-11-19T05:54:20;95273.22;;;2.96;80.16
77702;BME280;66868;42.708;23.404;2023-11-19T05:56:49;95249.53;;;2.79;79.83
77702;BME280;66868;42.708;23.404;2023-11-19T05:59:15;95275.69;;;2.98;80.22
77702;BME280;66868;42.708;23.404;2023-11-19T06:01:43;95265.03;;;2.91;79.72
77702;BME280;66868;42.708;23.404;2023-11-19T06:04:09;95281.53;;;2.97;80.37
77702;BME280;66868;42.708;23.404;2023-11-19T06:06:35;95267.00;;;2.80;79.76
77702;BME280;66868;42.708;23.404;2023-11-19T06:09:16;95216.09;;;2.52;80.07
77702;BME280;66868;42.708;23.404;2023-11-19T06:11:43;95294.81;;;3.00;80.47
77702;BME280;66868;42.708;23.404;2023-11-19T06:14:09;95302.25;;;3.02;80.16
77702;BME280;66868;42.708;23.404;2023-11-19T06:16:35;95306.50;;;2.98;79.61
77702;BME280;66868;42.708;23.404;2023-11-19T06:19:02;95280.03;;;2.91;80.15
77702;BME280;66868;42.708;23.404;2023-11-19T06:21:27;95289.25;;;2.89;80.10
77702;BME280;66868;42.708;23.404;2023-11-19T06:23:52;95293.09;;;3.01;80.11
77702;BME280;66868;42.708;23.404;2023-11-19T06:26:18;95266.66;;;2.92;79.86
77702;BME280;66868;42.708;23.404;2023-11-19T06:28:44;95293.06;;;3.02;80.31
77702;BME280;66868;42.708;23.404;2023-11-19T06:31:10;95301.50;;;2.98;79.79
77702;BME280;66868;42.708;23.404;2023-11-19T06:33:35;95318.06;;;3.02;79.82
77702;BME280;66868;42.708;23.404;2023-11-19T06:36:00;95290.53;;;3.04;79.58
77702;BME280;66868;42.708;23.404;2023-11-19T06:38:26;95281.25;;;3.07;80.12
77702;BME280;66868;42.708;23.404;2023-11-19T06:40:51;95307.91;;;3.08;79.87
77702;BME280;66868;42.708;23.404;2023-11-19T06:43:17;95276.75;;;2.89;80.19
77702;BME280;66868;42.708;23.404;2023-11-19T06:45:43;95298.59;;;3.14;79.90
77702;BME280;66868;42.708;23.404;2023-11-19T06:48:08;95296.84;;;3.17;79.81
77702;BME280;66868;42.708;23.404;2023-11-19T06:50:34;95306.75;;;3.20;80.02
77702;BME280;66868;42.708;23.404;2023-11-19T06:52:59;95297.81;;;3.11;79.77
77702;BME280;66868;42.708;23.404;2023-11-19T06:55:26;95303.63;;;3.14;79.86
77702;BME280;66868;42.708;23.404;2023-11-19T06:57:51;95318.56;;;3.15;79.87
77702;BME280;66868;42.708;23.404;2023-11-19T07:00:17;95289.63;;;3.06;79.76
77702;BME280;66868;42.708;23.404;2023-11-19T07:02:43;95306.97;;;3.13;79.21
77702;BME280;66868;42.708;23.404;2023-11-19T07:05:10;95314.47;;;3.13;78.64
77702;BME280;66868;42.708;23.404;2023-11-19T07:07:37;95314.56;;;3.09;79.08
77702;BME280;66868;42.708;23.404;2023-11-19T07:10:03;95314.63;;;3.06;79.01
77702;BME280;66868;42.708;23.404;2023-11-19T07:12:30;95268.94;;;2.69;78.59
77702;BME280;66868;42.708;23.404;2023-11-19T07:14:55;95322.19;;;3.05;78.38
77702;BME280;66868;42.708;23.404;2023-11-19T07:17:21;95321.50;;;2.98;78.67
77702;BME280;66868;42.708;23.404;2023-11-19T07:19:49;95316.91;;;2.83;78.62
77702;BME280;66868;42.708;23.404;2023-11-19T07:22:15;95328.16;;;2.99;78.46
77702;BME280;66868;42.708;23.404;2023-11-19T07:24:41;95327.22;;;3.03;79.21
77702;BME280;66868;42.708;23.404;2023-11-19T07:27:07;95353.88;;;3.04;78.19
77702;BME280;66868;42.708;23.404;2023-11-19T07:29:34;95343.97;;;3.00;78.23
77702;BME280;66868;42.708;23.404;2023-11-19T07:31:59;95343.44;;;2.87;78.13
77702;BME280;66868;42.708;23.404;2023-11-19T07:34:27;95356.75;;;2.89;78.98
77702;BME280;66868;42.708;23.404;2023-11-19T07:36:52;95295.22;;;2.51;78.57
77702;BME280;66868;42.708;23.404;2023-11-19T07:39:19;95358.06;;;3.02;78.88
77702;BME280;66868;42.708;23.404;2023-11-19T07:41:45;95373.09;;;3.01;78.90
77702;BME280;66868;42.708;23.404;2023-11-19T07:44:11;95364.91;;;2.96;78.81
77702;BME280;66868;42.708;23.404;2023-11-19T07:46:36;95355.66;;;2.99;78.79
77702;BME280;66868;42.708;23.404;2023-11-19T07:49:02;95331.66;;;2.92;79.15
77702;BME280;66868;42.708;23.404;2023-11-19T07:51:28;95361.28;;;3.07;78.32
77702;BME280;66868;42.708;23.404;2023-11-19T07:53:53;95363.78;;;3.07;78.34
77702;BME280;66868;42.708;23.404;2023-11-19T07:56:19;95366.25;;;3.09;78.05
77702;BME280;66868;42.708;23.404;2023-11-19T07:58:44;95373.81;;;3.06;77.83
77702;BME280;66868;42.708;23.404;2023-11-19T08:01:10;95369.63;;;3.06;78.02
77702;BME280;66868;42.708;23.404;2023-11-19T08:03:35;95377.06;;;3.09;78.07
77702;BME280;66868;42.708;23.404;2023-11-19T08:06:02;95392.94;;;3.08;77.92
77702;BME280;66868;42.708;23.404;2023-11-19T08:08:27;95194.84;;;2.03;77.77
77702;BME280;66868;42.708;23.404;2023-11-19T08:10:55;95326.59;;;2.95;78.98
77702;BME280;66868;42.708;23.404;2023-11-19T08:13:23;95354.81;;;3.31;81.01
77702;BME280;66868;42.708;23.404;2023-11-19T08:15:48;95374.50;;;3.43;79.40
77702;BME280;66868;42.708;23.404;2023-11-19T08:18:13;95396.34;;;3.69;78.41
77702;BME280;66868;42.708;23.404;2023-11-19T08:20:39;95380.97;;;3.81;77.15
77702;BME280;66868;42.708;23.404;2023-11-19T08:23:05;95380.66;;;3.92;77.79
77702;BME280;66868;42.708;23.404;2023-11-19T08:25:31;95384.69;;;3.97;75.87
77702;BME280;66868;42.708;23.404;2023-11-19T08:27:59;95389.75;;;3.94;74.69
77702;BME280;66868;42.708;23.404;2023-11-19T08:30:24;95387.38;;;3.90;74.93
77702;BME280;66868;42.708;23.404;2023-11-19T08:32:50;95390.56;;;3.96;74.51
77702;BME280;66868;42.708;23.404;2023-11-19T08:35:15;95372.66;;;3.79;75.11
77702;BME280;66868;42.708;23.404;2023-11-19T08:37:41;95390.03;;;3.85;74.63
77702;BME280;66868;42.708;23.404;2023-11-19T08:40:07;95415.22;;;3.79;74.76
77702;BME280;66868;42.708;23.404;2023-11-19T08:42:33;95404.47;;;3.76;74.97
77702;BME280;66868;42.708;23.404;2023-11-19T08:44:58;95407.91;;;3.73;75.38
77702;BME280;66868;42.708;23.404;2023-11-19T08:47:24;95409.28;;;3.83;77.16
77702;BME280;66868;42.708;23.404;2023-11-19T08:49:53;95395.81;;;3.87;76.41
77702;BME280;66868;42.708;23.404;2023-11-19T08:52:18;95387.97;;;3.98;76.53
77702;BME280;66868;42.708;23.404;2023-11-19T08:54:44;95387.44;;;3.88;75.72
77702;BME280;66868;42.708;23.404;2023-11-19T08:57:10;95419.13;;;3.89;74.20
77702;BME280;66868;42.708;23.404;2023-11-19T08:59:35;95420.84;;;3.87;74.03
77702;BME280;66868;42.708;23.404;2023-11-19T09:02:04;95379.75;;;3.65;73.60
77702;BME280;66868;42.708;23.404;2023-11-19T09:04:32;95401.22;;;3.74;74.07
77702;BME280;66868;42.708;23.404;2023-11-19T09:06:58;95382.94;;;3.70;74.26
77702;BME280;66868;42.708;23.404;2023-11-19T09:09:23;95380.53;;;3.67;74.77
77702;BME280;66868;42.708;23.404;2023-11-19T09:11:48;95383.88;;;3.66;74.57
77702;BME280;66868;42.708;23.404;2023-11-19T09:14:14;95374.13;;;3.57;74.69
77702;BME280;66868;42.708;23.404;2023-11-19T09:16:39;95354.91;;;3.59;74.38
77702;BME280;66868;42.708;23.404;2023-11-19T09:19:05;95386.31;;;3.69;73.74
77702;BME280;66868;42.708;23.404;2023-11-19T09:21:30;95371.56;;;3.60;74.45
77702;BME280;66868;42.708;23.404;2023-11-19T09:23:56;95406.16;;;3.75;73.88
77702;BME280;66868;42.708;23.404;2023-11-19T09:26:22;95409.53;;;3.74;74.22
77702;BME280;66868;42.708;23.404;2023-11-19T09:28:47;95386.22;;;3.72;73.68
77702;BME280;66868;42.708;23.404;2023-11-19T09:31:17;95397.28;;;3.94;74.69
77702;BME280;66868;42.708;23.404;2023-11-19T09:33:43;95386.31;;;3.98;73.46
77702;BME280;66868;42.708;23.404;2023-11-19T09:36:09;95344.47;;;3.74;72.55
77702;BME280;66868;42.708;23.404;2023-11-19T09:38:37;95392.28;;;3.94;71.95
77702;BME280;66868;42.708;23.404;2023-11-19T09:41:06;95381.06;;;3.78;72.27
77702;BME280;66868;42.708;23.404;2023-11-19T09:43:34;95359.94;;;3.87;72.98
77702;BME280;66868;42.708;23.404;2023-11-19T09:46:05;95364.25;;;3.82;72.79
77702;BME280;66868;42.708;23.404;2023-11-19T09:48:33;95355.06;;;3.82;73.12
77702;BME280;66868;42.708;23.404;2023-11-19T09:51:00;95333.34;;;3.83;72.96
77702;BME280;66868;42.708;23.404;2023-11-19T09:53:26;95322.53;;;3.82;73.08
77702;BME280;66868;42.708;23.404;2023-11-19T09:55:52;95327.53;;;3.82;71.95
77702;BME280;66868;42.708;23.404;2023-11-19T09:58:18;95333.28;;;3.84;72.79
77702;BME280;66868;42.708;23.404;2023-11-19T10:00:43;95341.97;;;3.74;71.79
77702;BME280;66868;42.708;23.404;2023-11-19T10:03:11;95347.59;;;3.81;72.25
77702;BME280;66868;42.708;23.404;2023-11-19T10:05:37;95329.94;;;3.85;72.00
77702;BME280;66868;42.708;23.404;2023-11-19T10:08:04;95329.06;;;3.86;71.55
77702;BME280;66868;42.708;23.404;2023-11-19T10:10:30;95288.16;;;3.60;71.36
77702;BME280;66868;42.708;23.404;2023-11-19T10:12:55;95318.88;;;3.92;71.81
77702;BME280;66868;42.708;23.404;2023-11-19T10:15:25;95335.34;;;3.99;72.01
77702;BME280;66868;42.708;23.404;2023-11-19T10:17:58;95343.66;;;4.02;71.36
77702;BME280;66868;42.708;23.404;2023-11-19T10:20:23;95329.53;;;3.99;71.80
77702;BME280;66868;42.708;23.404;2023-11-19T10:22:52;95301.00;;;3.75;71.33
77702;BME280;66868;42.708;23.404;2023-11-19T10:25:36;95337.50;;;4.12;71.28
77702;BME280;66868;42.708;23.404;2023-11-19T10:28:02;95341.56;;;4.16;71.92
77702;BME280;66868;42.708;23.404;2023-11-19T10:30:29;95354.56;;;4.27;71.60
77702;BME280;66868;42.708;23.404;2023-11-19T10:33:07;95322.72;;;4.30;70.84
77702;BME280;66868;42.708;23.404;2023-11-19T10:38:19;95323.31;;;4.38;71.10
77702;BME280;66868;42.708;23.404;2023-11-19T10:40:45;95307.47;;;4.38;70.77
77702;BME280;66868;42.708;23.404;2023-11-19T10:43:10;95296.09;;;4.28;70.72
77702;BME280;66868;42.708;23.404;2023-11-19T10:45:37;95298.41;;;4.34;70.69
77702;BME280;66868;42.708;23.404;2023-11-19T10:48:06;95319.78;;;4.44;69.79
77702;BME280;66868;42.708;23.404;2023-11-19T10:50:36;95319.03;;;4.42;69.90
77702;BME280;66868;42.708;23.404;2023-11-19T10:53:02;95325.75;;;4.40;70.29
77702;BME280;66868;42.708;23.404;2023-11-19T10:55:35;95313.44;;;4.34;70.39
77702;BME280;66868;42.708;23.404;2023-11-19T10:58:05;95322.78;;;4.29;70.39
77702;BME280;66868;42.708;23.404;2023-11-19T11:03:18;95327.09;;;4.25;70.43
77702;BME280;66868;42.708;23.404;2023-11-19T11:05:48;95314.78;;;4.18;70.58
77702;BME280;66868;42.708;23.404;2023-11-19T11:08:16;95308.88;;;4.20;71.51
77702;BME280;66868;42.708;23.404;2023-11-19T11:10:51;95307.03;;;4.25;71.56
77702;BME280;66868;42.708;23.404;2023-11-19T11:13:18;95276.50;;;4.13;69.81
77702;BME280;66868;42.708;23.404;2023-11-19T11:15:44;95288.75;;;4.22;70.56
77702;BME280;66868;42.708;23.404;2023-11-19T11:18:12;95296.19;;;4.25;70.83
77702;BME280;66868;42.708;23.404;2023-11-19T11:20:39;95285.25;;;4.27;71.02
77702;BME280;66868;42.708;23.404;2023-11-19T11:25:59;95295.69;;;4.40;71.50
77702;BME280;66868;42.708;23.404;2023-11-19T11:34:47;95300.75;;;4.65;70.61
77702;BME280;66868;42.708;23.404;2023-11-19T11:39:52;95301.06;;;4.80;69.71
77702;BME280;66868;42.708;23.404;2023-11-19T11:45:11;95277.41;;;5.12;70.34
77702;BME280;66868;42.708;23.404;2023-11-19T11:55:36;95278.31;;;5.56;68.18
77702;BME280;66868;42.708;23.404;2023-11-19T11:58:02;95275.25;;;5.71;69.21
77702;BME280;66868;42.708;23.404;2023-11-19T12:02:59;95278.16;;;6.06;68.14
77702;BME280;66868;42.708;23.404;2023-11-19T12:05:25;95264.84;;;6.04;67.46
77702;BME280;66868;42.708;23.404;2023-11-19T12:08:02;95269.31;;;6.17;66.65
77702;BME280;66868;42.708;23.404;2023-11-19T12:10:32;95264.72;;;6.07;66.78
77702;BME280;66868;42.708;23.404;2023-11-19T12:13:01;95257.81;;;6.12;65.81
77702;BME280;66868;42.708;23.404;2023-11-19T12:15:30;95251.19;;;6.31;66.42
77702;BME280;66868;42.708;23.404;2023-11-19T12:17:55;95246.56;;;6.42;67.12
77702;BME280;66868;42.708;23.404;2023-11-19T12:20:22;95244.41;;;6.53;66.29
77702;BME280;66868;42.708;23.404;2023-11-19T12:22:49;95233.88;;;6.65;66.69
77702;BME280;66868;42.708;23.404;2023-11-19T12:25:16;95228.31;;;6.78;66.79
77702;BME280;66868;42.708;23.404;2023-11-19T12:27:44;95209.44;;;6.68;64.30
77702;BME280;66868;42.708;23.404;2023-11-19T12:30:11;95220.38;;;6.66;64.63
77702;BME280;66868;42.708;23.404;2023-11-19T12:32:44;95215.88;;;6.54;63.83
77702;BME280;66868;42.708;23.404;2023-11-19T12:35:10;95234.38;;;6.74;64.88
77702;BME280;66868;42.708;23.404;2023-11-19T12:37:49;95240.13;;;6.76;63.50
77702;BME280;66868;42.708;23.404;2023-11-19T12:40:19;95203.41;;;6.72;63.72
77702;BME280;66868;42.708;23.404;2023-11-19T12:42:46;95198.28;;;6.75;63.35
77702;BME280;66868;42.708;23.404;2023-11-19T12:45:12;95197.31;;;6.77;63.70
77702;BME280;66868;42.708;23.404;2023-11-19T12:47:39;95211.41;;;7.00;63.89
77702;BME280;66868;42.708;23.404;2023-11-19T12:50:06;95189.31;;;6.88;62.98
77702;BME280;66868;42.708;23.404;2023-11-19T12:52:32;95209.06;;;6.97;64.04
77702;BME280;66868;42.708;23.404;2023-11-19T12:54:57;95205.38;;;7.04;65.51
77702;BME280;66868;42.708;23.404;2023-11-19T12:57:42;95220.06;;;7.13;64.11
77702;BME280;66868;42.708;23.404;2023-11-19T13:00:18;95195.69;;;6.95;63.49
77702;BME280;66868;42.708;23.404;2023-11-19T13:02:51;95201.63;;;7.13;63.50
77702;BME280;66868;42.708;23.404;2023-11-19T13:05:35;95173.28;;;7.09;61.59
77702;BME280;66868;42.708;23.404;2023-11-19T13:08:03;95183.06;;;7.15;63.08
77702;BME280;66868;42.708;23.404;2023-11-19T13:10:33;95188.13;;;7.15;63.04
77702;BME280;66868;42.708;23.404;2023-11-19T13:13:09;95184.72;;;7.16;63.09
77702;BME280;66868;42.708;23.404;2023-11-19T13:15:35;95159.97;;;7.07;62.94
77702;BME280;66868;42.708;23.404;2023-11-19T13:18:01;95176.41;;;7.14;63.25
77702;BME280;66868;42.708;23.404;2023-11-19T13:20:27;95179.38;;;7.22;63.70
77702;BME280;66868;42.708;23.404;2023-11-19T13:23:00;95167.56;;;7.24;63.60
77702;BME280;66868;42.708;23.404;2023-11-19T13:25:26;95169.31;;;7.22;63.44
77702;BME280;66868;42.708;23.404;2023-11-19T13:27:53;95160.47;;;7.14;62.66